createdAt,value
2022-11-28T00:01:42.942Z,9.00
2022-11-28T00:04:11.392Z,7.72
2022-11-28T00:06:45.286Z,9.15
2022-11-28T00:09:14.766Z,9.70
2022-11-28T00:11:44.145Z,10.25
2022-11-28T00:14:12.903Z,9.10
2022-11-28T00:16:42.668Z,7.43
2022-11-28T00:19:12.398Z,10.30
2022-11-28T00:21:40.807Z,9.48
2022-11-28T00:24:09.752Z,9.95
2022-11-28T00:26:40.371Z,8.73
2022-11-28T00:29:09.654Z,13.27
2022-11-28T00:31:42.509Z,7.97
2022-11-28T00:34:13.323Z,11.65
2022-11-28T00:36:41.572Z,9.43
2022-11-28T00:39:09.646Z,10.40
2022-11-28T00:41:37.990Z,9.90
2022-11-28T00:44:06.169Z,9.93
2022-11-28T00:46:34.927Z,9.98
2022-11-28T00:49:06.168Z,9.98
2022-11-28T00:51:36.572Z,9.00
2022-11-28T00:54:07.042Z,9.38
2022-11-28T00:56:38.108Z,13.63
2022-11-28T00:59:07.183Z,9.82
2022-11-28T01:01:37.039Z,9.88
2022-11-28T01:04:08.533Z,12.18
2022-11-28T01:06:40.205Z,10.00
2022-11-28T01:09:11.129Z,11.10
2022-11-28T01:11:39.854Z,12.98
2022-11-28T01:14:09.089Z,12.95
2022-11-28T01:16:37.291Z,8.80
2022-11-28T01:19:05.579Z,10.57
2022-11-28T01:21:33.963Z,10.15
2022-11-28T01:24:03.417Z,13.25
2022-11-28T01:26:32.005Z,11.20
2022-11-28T01:29:01.133Z,11.85
2022-11-28T01:31:31.165Z,9.77
2022-11-28T01:33:59.882Z,10.77
2022-11-28T01:36:28.364Z,12.23
2022-11-28T01:38:56.539Z,10.60
2022-11-28T01:41:27.579Z,9.75
2022-11-28T01:44:08.312Z,11.13
2022-11-28T01:46:37.511Z,12.77
2022-11-28T01:49:12.652Z,11.57
2022-11-28T01:51:44.244Z,10.93
2022-11-28T01:54:13.316Z,11.00
2022-11-28T01:56:46.933Z,11.00
2022-11-28T01:59:17.022Z,10.23
2022-11-28T02:01:46.239Z,10.23
2022-11-28T02:04:15.155Z,12.45
2022-11-28T02:06:43.802Z,9.38
2022-11-28T02:09:13.979Z,12.30
2022-11-28T02:12:12.427Z,10.85
2022-11-28T02:15:00.955Z,9.20
2022-11-28T02:17:44.592Z,11.02
2022-11-28T02:20:56.935Z,11.95
2022-11-28T02:23:30.086Z,14.25
2022-11-28T02:26:16.331Z,13.88
2022-11-28T02:29:26.552Z,11.70
2022-11-28T02:32:15.807Z,10.93
2022-11-28T02:34:52.729Z,10.05
2022-11-28T02:37:26.755Z,9.85
2022-11-28T02:40:06.737Z,10.73
2022-11-28T02:42:43.114Z,9.85
2022-11-28T02:45:14.655Z,11.23
2022-11-28T02:47:47.769Z,10.73
2022-11-28T02:50:21.431Z,10.25
2022-11-28T02:52:52.601Z,11.85
2022-11-28T02:55:21.377Z,10.75
2022-11-28T02:57:51.837Z,10.23
2022-11-28T03:00:29.782Z,10.13
2022-11-28T03:03:17.902Z,11.10
2022-11-28T03:05:53.227Z,12.32
2022-11-28T03:08:35.588Z,12.82
2022-11-28T03:11:09.935Z,10.20
2022-11-28T03:13:42.636Z,9.90
2022-11-28T03:16:24.118Z,11.52
2022-11-28T03:19:02.088Z,12.05
2022-11-28T03:21:39.064Z,13.80
2022-11-28T03:24:13.592Z,11.18
2022-11-28T03:26:48.222Z,12.68
2022-11-28T03:29:22.543Z,14.65
2022-11-28T03:31:54.953Z,14.57
2022-11-28T03:34:28.144Z,15.23
2022-11-28T03:37:02.431Z,15.05
2022-11-28T03:39:36.792Z,13.82
2022-11-28T03:42:10.031Z,12.30
2022-11-28T03:44:44.353Z,14.15
2022-11-28T03:47:12.697Z,10.63
2022-11-28T03:49:45.830Z,12.73
2022-11-28T03:52:19.548Z,12.85
2022-11-28T03:54:52.379Z,15.23
2022-11-28T03:57:25.712Z,12.23
2022-11-28T03:59:55.760Z,13.43
2022-11-28T04:02:31.126Z,13.98
2022-11-28T04:05:04.202Z,11.40
2022-11-28T04:07:39.781Z,11.25
2022-11-28T04:10:14.426Z,14.52
2022-11-28T04:12:53.836Z,12.77
2022-11-28T04:15:27.683Z,12.50
2022-11-28T04:18:00.698Z,12.85
2022-11-28T04:20:36.601Z,13.52
2022-11-28T04:23:09.246Z,14.15
2022-11-28T04:25:42.450Z,12.63
2022-11-28T04:28:15.839Z,13.68
2022-11-28T04:30:47.161Z,13.50
2022-11-28T04:33:17.072Z,14.63
2022-11-28T04:35:51.361Z,14.45
2022-11-28T04:38:20.277Z,14.07
2022-11-28T04:40:52.797Z,12.45
2022-11-28T04:43:25.416Z,12.80
2022-11-28T04:45:58.003Z,14.40
2022-11-28T04:48:29.939Z,13.60
2022-11-28T04:51:16.104Z,10.82
2022-11-28T04:53:50.696Z,13.80
2022-11-28T04:56:22.622Z,11.85
2022-11-28T04:58:51.787Z,9.68
2022-11-28T05:01:22.829Z,13.43
2022-11-28T05:03:51.281Z,16.60
2022-11-28T05:06:28.716Z,13.98
2022-11-28T05:08:56.860Z,12.27
2022-11-28T05:11:25.368Z,12.65
2022-11-28T05:13:53.752Z,14.25
2022-11-28T05:16:23.732Z,18.55
2022-11-28T05:18:52.020Z,13.07
2022-11-28T05:21:20.286Z,14.48
2022-11-28T05:23:49.732Z,12.13
2022-11-28T05:26:19.394Z,12.75
2022-11-28T05:28:49.646Z,11.40
2022-11-28T05:31:19.172Z,14.20
2022-11-28T05:33:47.378Z,13.27
2022-11-28T05:36:16.378Z,13.77
2022-11-28T05:38:45.064Z,13.65
2022-11-28T05:41:21.661Z,11.23
2022-11-28T05:43:49.709Z,14.63
2022-11-28T05:46:18.070Z,13.75
2022-11-28T05:48:46.168Z,12.27
2022-11-28T05:51:14.462Z,13.13
2022-11-28T05:53:42.651Z,13.90
2022-11-28T05:56:12.168Z,13.25
2022-11-28T05:58:42.167Z,14.80
2022-11-28T06:01:12.020Z,11.57
2022-11-28T06:03:40.086Z,12.32
2022-11-28T06:06:12.227Z,12.00
2022-11-28T06:08:40.326Z,15.50
2022-11-28T06:11:08.662Z,14.82
2022-11-28T06:13:37.216Z,15.48
2022-11-28T06:16:10.018Z,14.43
2022-11-28T06:18:38.361Z,17.25
2022-11-28T06:21:08.794Z,15.00
2022-11-28T06:23:38.780Z,14.95
2022-11-28T06:26:07.902Z,13.98
2022-11-28T06:28:36.482Z,12.30
2022-11-28T06:31:05.116Z,14.55
2022-11-28T06:33:34.475Z,14.02
2022-11-28T06:36:04.047Z,15.60
2022-11-28T06:38:32.795Z,12.38
2022-11-28T06:41:02.770Z,13.68
2022-11-28T06:43:31.594Z,13.23
2022-11-28T06:46:00.080Z,15.88
2022-11-28T06:48:28.519Z,14.00
2022-11-28T06:51:03.635Z,13.00
2022-11-28T06:53:31.876Z,13.90
2022-11-28T06:56:04.891Z,15.88
2022-11-28T06:58:33.157Z,13.73
2022-11-28T07:01:07.172Z,12.50
2022-11-28T07:03:35.239Z,11.93
2022-11-28T07:06:05.439Z,13.65
2022-11-28T07:08:34.333Z,15.10
2022-11-28T07:11:09.691Z,17.20
2022-11-28T07:13:37.814Z,15.15
2022-11-28T07:16:06.352Z,18.33
2022-11-28T07:18:34.717Z,19.00
2022-11-28T07:21:04.221Z,16.45
2022-11-28T07:23:32.407Z,15.75
2022-11-28T07:26:01.422Z,15.45
2022-11-28T07:28:30.563Z,15.93
2022-11-28T07:31:03.993Z,16.13
2022-11-28T07:33:32.488Z,15.85
2022-11-28T07:36:02.115Z,16.52
2022-11-28T07:38:31.680Z,15.68
2022-11-28T07:41:04.491Z,15.98
2022-11-28T07:43:32.644Z,18.67
2022-11-28T07:46:01.728Z,16.58
2022-11-28T07:48:29.929Z,15.82
2022-11-28T07:50:57.978Z,17.73
2022-11-28T07:53:26.054Z,17.98
2022-11-28T07:55:55.416Z,16.33
2022-11-28T07:58:23.474Z,15.38
2022-11-28T08:00:51.589Z,17.27
2022-11-28T08:03:19.658Z,15.82
2022-11-28T08:05:49.516Z,17.05
2022-11-28T08:08:18.281Z,14.55
2022-11-28T08:10:47.119Z,15.25
2022-11-28T08:13:16.500Z,16.15
2022-11-28T08:15:44.862Z,20.27
2022-11-28T08:18:12.992Z,18.80
2022-11-28T08:20:41.046Z,14.23
2022-11-28T08:23:09.197Z,15.43
2022-11-28T08:25:37.195Z,17.35
2022-11-28T08:28:05.480Z,15.73
2022-11-28T08:30:34.951Z,14.48
2022-11-28T08:33:03.071Z,13.40
2022-11-28T08:35:31.064Z,14.23
2022-11-28T08:38:02.070Z,13.18
2022-11-28T08:40:30.254Z,16.15
2022-11-28T08:42:59.606Z,14.57
2022-11-28T08:45:27.647Z,12.48
2022-11-28T08:47:57.024Z,13.32
2022-11-28T08:50:25.047Z,11.30
2022-11-28T08:52:53.094Z,12.93
2022-11-28T08:55:25.209Z,13.52
2022-11-28T08:57:59.915Z,14.63
2022-11-28T09:00:27.964Z,12.55
2022-11-28T09:02:57.324Z,12.77
2022-11-28T09:05:25.344Z,12.55
2022-11-28T09:07:55.960Z,12.13
2022-11-28T09:10:25.066Z,11.48
2022-11-28T09:12:53.443Z,12.35
2022-11-28T09:15:21.545Z,10.15
2022-11-28T09:17:49.557Z,12.85
2022-11-28T09:20:20.393Z,11.68
2022-11-28T09:22:48.498Z,10.48
2022-11-28T09:25:16.850Z,13.02
2022-11-28T09:27:44.904Z,13.20
2022-11-28T09:30:13.606Z,13.25
2022-11-28T09:32:41.694Z,11.15
2022-11-28T09:35:10.314Z,12.13
2022-11-28T09:37:39.654Z,13.05
2022-11-28T09:40:15.922Z,10.57
2022-11-28T09:42:44.890Z,12.07
2022-11-28T09:45:16.571Z,12.50
2022-11-28T09:47:47.932Z,13.25
2022-11-28T09:50:20.812Z,13.45
2022-11-28T09:52:58.817Z,12.45
2022-11-28T09:55:35.254Z,16.77
2022-11-28T09:58:07.640Z,13.77
2022-11-28T10:00:39.739Z,13.40
2022-11-28T10:03:33.749Z,24.67
2022-11-28T10:06:12.575Z,12.57
2022-11-28T10:08:56.962Z,15.02
2022-11-28T10:11:40.121Z,28.85
2022-11-28T10:14:37.752Z,14.52
2022-11-28T10:17:18.878Z,13.45
2022-11-28T10:19:55.117Z,13.18
2022-11-28T10:22:34.898Z,17.88
2022-11-28T10:25:13.511Z,11.57
2022-11-28T10:27:42.399Z,12.60
2022-11-28T10:30:19.563Z,10.40
2022-11-28T10:32:56.526Z,10.75
2022-11-28T10:35:29.316Z,12.93
2022-11-28T10:37:57.650Z,11.63
2022-11-28T10:40:37.122Z,18.00
2022-11-28T10:43:11.802Z,14.80
2022-11-28T10:45:52.751Z,11.07
2022-11-28T10:48:39.529Z,14.20
2022-11-28T10:51:20.227Z,12.35
2022-11-28T10:53:55.479Z,13.93
2022-11-28T10:56:33.861Z,16.30
2022-11-28T10:59:08.776Z,17.80
2022-11-28T11:01:40.448Z,17.08
2022-11-28T11:04:17.985Z,16.20
2022-11-28T11:07:08.809Z,17.17
2022-11-28T11:09:39.388Z,13.75
2022-11-28T11:12:20.115Z,15.02
2022-11-28T11:14:48.439Z,14.57
2022-11-28T11:17:34.217Z,16.17
2022-11-28T11:20:19.866Z,15.40
2022-11-28T11:22:55.393Z,14.23
2022-11-28T11:25:25.290Z,17.95
2022-11-28T11:27:56.807Z,18.23
2022-11-28T11:30:30.883Z,17.13
2022-11-28T11:33:01.184Z,17.10
2022-11-28T11:35:30.920Z,14.30
2022-11-28T11:38:18.610Z,18.40
2022-11-28T11:40:47.192Z,16.45
2022-11-28T11:43:28.678Z,20.67
2022-11-28T11:46:08.291Z,18.00
2022-11-28T11:48:38.204Z,17.67
2022-11-28T11:51:07.068Z,15.52
2022-11-28T11:53:35.204Z,17.30
2022-11-28T11:56:05.159Z,16.67
2022-11-28T11:58:42.100Z,18.70
2022-11-28T12:01:13.052Z,21.02
2022-11-28T12:03:48.797Z,15.45
2022-11-28T12:06:23.042Z,14.85
2022-11-28T12:08:53.224Z,17.15
2022-11-28T12:11:25.937Z,17.45
2022-11-28T12:13:56.050Z,16.77
2022-11-28T12:16:43.353Z,15.57
2022-11-28T12:19:23.597Z,13.70
2022-11-28T12:22:06.364Z,15.20
2022-11-28T12:24:42.486Z,16.35
2022-11-28T12:27:19.855Z,16.48
2022-11-28T12:30:04.166Z,16.77
2022-11-28T12:32:43.619Z,16.67
2022-11-28T12:35:26.332Z,14.90
2022-11-28T12:38:13.035Z,16.08
2022-11-28T12:40:53.215Z,16.08
2022-11-28T12:43:32.995Z,16.27
2022-11-28T12:46:08.661Z,15.32
2022-11-28T12:48:53.579Z,17.08
2022-11-28T12:51:33.913Z,20.10
2022-11-28T12:54:25.826Z,27.17
2022-11-28T12:57:00.247Z,22.88
2022-11-28T12:59:33.681Z,21.90
2022-11-28T13:02:19.362Z,19.55
2022-11-28T13:05:17.824Z,23.20
2022-11-28T13:07:58.720Z,18.13
2022-11-28T13:10:34.427Z,20.70
2022-11-28T13:13:08.871Z,19.05
2022-11-28T13:15:47.389Z,17.42
2022-11-28T13:18:29.137Z,17.52
2022-11-28T13:21:02.369Z,22.55
2022-11-28T13:23:37.111Z,18.85
2022-11-28T13:26:11.156Z,19.33
2022-11-28T13:28:46.916Z,20.23
2022-11-28T13:31:22.300Z,15.65
2022-11-28T13:33:54.412Z,19.67
2022-11-28T13:39:31.413Z,20.23
2022-11-28T13:43:11.865Z,21.08
2022-11-28T13:45:07.152Z,21.35
2022-11-28T13:47:37.006Z,20.85
2022-11-28T13:50:36.121Z,21.08
2022-11-28T13:53:21.345Z,19.90
2022-11-28T13:55:50.718Z,18.38
2022-11-28T13:58:25.922Z,19.65
2022-11-28T14:01:12.314Z,19.80
2022-11-28T14:03:47.737Z,22.42
2022-11-28T14:06:20.671Z,22.83
2022-11-28T14:08:50.710Z,18.67
2022-11-28T14:11:46.345Z,24.77
2022-11-28T14:14:34.554Z,32.38
2022-11-28T14:17:13.320Z,34.25
2022-11-28T14:20:02.114Z,22.95
2022-11-28T14:22:45.448Z,23.33
2022-11-28T14:25:21.157Z,22.98
2022-11-28T14:27:54.568Z,17.83
2022-11-28T14:30:28.190Z,19.00
2022-11-28T14:32:59.392Z,19.58
2022-11-28T14:36:15.875Z,21.23
2022-11-28T14:38:48.083Z,21.50
2022-11-28T14:41:16.862Z,20.52
2022-11-28T14:43:46.538Z,20.30
2022-11-28T14:46:27.828Z,17.88
2022-11-28T14:49:21.103Z,20.25
2022-11-28T14:52:39.185Z,21.20
2022-11-28T14:55:22.221Z,22.88
2022-11-28T14:57:57.254Z,25.95
2022-11-28T15:00:27.704Z,28.08
2022-11-28T15:03:15.565Z,22.35
2022-11-28T15:05:49.081Z,21.15
2022-11-28T15:08:45.406Z,23.50
2022-11-28T15:11:42.464Z,16.27
2022-11-28T15:14:21.662Z,22.55
2022-11-28T15:16:55.963Z,18.23
2022-11-28T15:19:28.135Z,18.60
2022-11-28T15:21:57.128Z,17.27
2022-11-28T15:24:30.757Z,22.13
2022-11-28T15:27:23.803Z,23.30
2022-11-28T15:29:57.722Z,18.42
2022-11-28T15:32:27.654Z,20.08
2022-11-28T15:35:00.411Z,31.77
2022-11-28T15:37:32.792Z,30.52
2022-11-28T15:40:04.290Z,22.80
2022-11-28T15:42:37.699Z,23.40
2022-11-28T15:45:13.589Z,23.60
2022-11-28T15:47:41.835Z,21.00
2022-11-28T15:50:18.170Z,22.35
2022-11-28T15:52:55.510Z,21.10
2022-11-28T15:55:26.043Z,24.00
2022-11-28T15:58:18.981Z,20.05
2022-11-28T16:00:54.261Z,22.13
2022-11-28T16:03:27.204Z,18.60
2022-11-28T16:05:57.193Z,25.10
2022-11-28T16:08:31.279Z,22.05
2022-11-28T16:11:00.444Z,22.10
2022-11-28T16:13:32.367Z,19.90
2022-11-28T16:16:04.025Z,22.52
2022-11-28T16:18:32.602Z,22.30
2022-11-28T16:21:02.321Z,19.73
2022-11-28T16:23:33.833Z,19.98
2022-11-28T16:26:03.952Z,18.85
2022-11-28T16:28:41.081Z,22.48
2022-11-28T16:31:13.759Z,24.70
2022-11-28T16:33:44.800Z,33.22
2022-11-28T16:36:21.386Z,27.05
2022-11-28T16:38:51.561Z,23.63
2022-11-28T16:41:26.504Z,23.65
2022-11-28T16:44:00.547Z,22.55
2022-11-28T16:46:33.497Z,23.73
2022-11-28T16:49:02.388Z,24.92
2022-11-28T16:51:37.100Z,28.17
2022-11-28T16:54:30.092Z,23.52
2022-11-28T16:57:09.700Z,21.23
2022-11-28T16:59:39.179Z,20.95
2022-11-28T17:02:15.458Z,19.38
2022-11-28T17:04:44.243Z,16.45
2022-11-28T17:07:14.560Z,17.13
2022-11-28T17:09:43.124Z,61.85
2022-11-28T17:12:19.655Z,25.67
2022-11-28T17:14:49.066Z,26.05
2022-11-28T17:17:18.527Z,26.60
2022-11-28T17:19:47.369Z,42.83
2022-11-28T17:22:18.648Z,26.80
2022-11-28T17:24:47.339Z,28.10
2022-11-28T17:27:16.319Z,43.20
2022-11-28T17:29:44.824Z,45.75
2022-11-28T17:32:15.603Z,38.60
2022-11-28T17:34:45.962Z,34.42
2022-11-28T17:37:14.667Z,30.92
2022-11-28T17:40:03.394Z,30.50
2022-11-28T17:42:31.606Z,28.10
2022-11-28T17:44:59.685Z,27.60
2022-11-28T17:47:29.168Z,27.08
2022-11-28T17:49:57.518Z,28.65
2022-11-28T17:52:30.060Z,22.00
2022-11-28T17:55:06.848Z,24.67
2022-11-28T17:57:36.195Z,24.70
2022-11-28T18:00:06.412Z,23.33
2022-11-28T18:02:43.443Z,20.80
2022-11-28T18:05:11.779Z,21.42
2022-11-28T18:07:41.468Z,25.88
2022-11-28T18:10:12.695Z,20.63
2022-11-28T18:12:40.790Z,22.30
2022-11-28T18:15:10.417Z,27.08
2022-11-28T18:17:39.127Z,26.63
2022-11-28T18:20:11.149Z,26.77
2022-11-28T18:22:39.393Z,28.65
2022-11-28T18:25:09.791Z,23.45
2022-11-28T18:27:38.671Z,25.40
2022-11-28T18:30:08.417Z,24.77
2022-11-28T18:32:36.854Z,23.15
2022-11-28T18:35:05.395Z,22.02
2022-11-28T18:37:34.900Z,23.80
2022-11-28T18:40:08.882Z,22.13
2022-11-28T18:42:37.562Z,30.20
2022-11-28T18:45:06.269Z,24.85
2022-11-28T18:47:36.124Z,23.92
2022-11-28T18:50:04.359Z,22.52
2022-11-28T18:52:33.731Z,28.15
2022-11-28T18:55:02.006Z,23.58
2022-11-28T18:57:32.662Z,23.95
2022-11-28T19:00:01.682Z,25.58
2022-11-28T19:02:30.643Z,22.73
2022-11-28T19:04:58.831Z,20.50
2022-11-28T19:07:27.761Z,21.60
2022-11-28T19:09:57.253Z,21.80
2022-11-28T19:12:25.348Z,26.00
2022-11-28T19:14:58.759Z,27.65
2022-11-28T19:17:30.360Z,26.75
2022-11-28T19:19:58.455Z,30.15
2022-11-28T19:22:26.644Z,27.05
2022-11-28T19:24:54.721Z,27.90
2022-11-28T19:27:24.214Z,24.10
2022-11-28T19:29:54.268Z,29.70
2022-11-28T19:32:22.473Z,28.60
2022-11-28T19:34:52.254Z,27.33
2022-11-28T19:37:20.461Z,26.42
2022-11-28T19:39:48.558Z,26.10
2022-11-28T19:42:16.871Z,29.73
2022-11-28T19:44:46.543Z,47.63
2022-11-28T19:47:15.037Z,42.05
2022-11-28T19:49:44.341Z,32.17
2022-11-28T19:52:12.661Z,37.85
2022-11-28T19:54:40.758Z,35.85
2022-11-28T19:57:11.241Z,24.27
2022-11-28T19:59:39.517Z,28.40
2022-11-28T20:02:10.424Z,28.70
2022-11-28T20:04:40.300Z,26.92
2022-11-28T20:07:08.614Z,24.08
2022-11-28T20:09:37.307Z,27.33
2022-11-28T20:12:06.041Z,27.25
2022-11-28T20:14:35.188Z,28.05
2022-11-28T20:17:05.103Z,35.30
2022-11-28T20:19:35.902Z,65.30
2022-11-28T20:22:04.781Z,30.42
2022-11-28T20:24:34.172Z,29.38
2022-11-28T20:27:02.430Z,31.42
2022-11-28T20:29:30.970Z,27.85
2022-11-28T20:31:59.192Z,27.38
2022-11-28T20:34:28.680Z,27.65
2022-11-28T20:36:59.223Z,21.17
2022-11-28T20:39:27.708Z,26.45
2022-11-28T20:41:55.723Z,25.00
2022-11-28T20:44:23.935Z,25.83
2022-11-28T20:46:52.276Z,23.98
2022-11-28T20:49:20.563Z,27.48
2022-11-28T20:51:50.207Z,27.15
2022-11-28T20:54:19.996Z,24.20
2022-11-28T20:59:36.031Z,24.15
2022-11-28T21:02:04.307Z,23.70
2022-11-28T21:04:32.870Z,23.05
2022-11-28T21:07:00.988Z,24.65
2022-11-28T21:09:30.391Z,22.55
2022-11-28T21:11:59.533Z,24.10
2022-11-28T21:14:29.045Z,18.85
2022-11-28T21:16:57.994Z,22.00
2022-11-28T21:19:26.301Z,27.58
2022-11-28T21:21:54.338Z,20.13
2022-11-28T21:24:22.358Z,24.00
2022-11-28T21:26:54.359Z,20.75
2022-11-28T21:29:24.835Z,23.27
2022-11-28T21:31:53.937Z,26.70
2022-11-28T21:34:22.641Z,26.73
2022-11-28T21:36:50.759Z,33.60
2022-11-28T21:39:20.828Z,44.88
2022-11-28T21:41:50.783Z,38.88
2022-11-28T21:44:20.676Z,35.80
2022-11-28T21:46:50.233Z,35.78
2022-11-28T21:49:18.498Z,36.90
2022-11-28T21:51:46.545Z,34.70
2022-11-28T21:54:14.627Z,36.08
2022-11-28T21:56:44.612Z,43.70
2022-11-28T21:59:12.719Z,34.92
2022-11-28T22:01:42.821Z,37.67
2022-11-28T22:04:11.149Z,49.30
2022-11-28T22:06:40.484Z,46.10
2022-11-28T22:09:09.825Z,53.20
2022-11-28T22:11:40.188Z,48.35
2022-11-28T22:14:08.416Z,48.30
2022-11-28T22:16:36.762Z,39.33
2022-11-28T22:19:06.850Z,58.65
2022-11-28T22:21:54.227Z,47.90
2022-11-28T22:24:23.735Z,57.63
2022-11-28T22:26:51.901Z,73.00
2022-11-28T22:29:20.146Z,57.33
2022-11-28T22:31:49.854Z,55.42
2022-11-28T22:34:20.496Z,57.53
2022-11-28T22:36:49.068Z,65.75
2022-11-28T22:39:17.324Z,71.40
2022-11-28T22:41:45.335Z,58.33
2022-11-28T22:44:14.149Z,62.35
2022-11-28T22:46:42.212Z,53.78
2022-11-28T22:49:12.052Z,55.22
2022-11-28T22:51:42.373Z,66.10
2022-11-28T22:54:13.245Z,67.20
2022-11-28T22:56:42.190Z,50.20
2022-11-28T22:59:15.308Z,43.63
2022-11-28T23:01:44.214Z,53.17
2022-11-28T23:04:12.726Z,52.85
2022-11-28T23:06:42.159Z,60.13
2022-11-28T23:09:12.869Z,55.22
2022-11-28T23:11:41.612Z,56.50
2022-11-28T23:14:13.880Z,52.40
2022-11-28T23:16:43.747Z,61.03
2022-11-28T23:19:14.166Z,54.45
2022-11-28T23:21:45.481Z,59.88
2022-11-28T23:24:15.224Z,51.60
2022-11-28T23:26:45.362Z,56.38
2022-11-28T23:29:15.395Z,56.13
2022-11-28T23:31:44.595Z,56.00
2022-11-28T23:34:12.949Z,44.13
2022-11-28T23:36:43.872Z,56.28
2022-11-28T23:39:13.866Z,50.90
2022-11-28T23:41:42.177Z,53.47
2022-11-28T23:44:11.806Z,67.50
2022-11-28T23:46:40.419Z,50.25
2022-11-28T23:49:09.161Z,48.03
2022-11-28T23:51:37.956Z,48.35
2022-11-28T23:54:07.503Z,43.22
2022-11-28T23:56:39.727Z,38.45
2022-11-28T23:59:10.209Z,39.75
